Terminal Aerodrome Forecast
Issued by NWS

Home | Current Version | Previous Version | Text Only | Print | Product List | Glossary On
Versions: 1 2 3 4 5 6 7 8 9 10 11 12 13 14
000
FTUS43 KGRB 212300
TAFMTW
TAF
KMTW 212332Z 2200/2224 16011KT 6SM BR SCT012 OVC035
      TEMPO 2200/2202 2SM -RASN BR BKN012
     FM220200 16010KT 4SM BR OVC012
      TEMPO 2202/2206 2SM -SNDZ BR BKN008
     FM220600 15009KT 3SM BR OVC007
     FM221600 12008KT 5SM BR SCT008 OVC015=

USA.gov is the U.S. government's official web portal to all federal, state and local government web resources and services.